VE-0033 weather

Campo de Palma Airport
Zulia, Venezuela

Public forecast

Using degrees Celsius for public forecast. Weather courtesy of forecast.io.

Closest aviation weather report (METAR) to Campo de Palma Airport

Report is more than 6 hours old.

Closest report is La Fria Airport, 23.1 nm (42.7 km) S. Retrieved 2017/09/20 18:00 UTC (2 years ago):

SVLF 201800Z 00000KT 9999 SCT040 XX/XX Q1010

Closest aviation forecast (TAF) to Campo de Palma Airport

Closest forecast is Camilo Daza International Airport, 44.9 nm (83.2 km) SSW. Retrieved 2019/10/18 06:40 UTC (4 hours ago):

TAF SKCC 180430Z 1806/1906 VRB02KT 9999 SCT020 SCT090 TEMPO 1806/1814 DZ BECMG 1812/1814 34010KT TEMPO 1821/1823 5000 TSRA SCT018CB TX33/1818Z TN24/1811Z